Terminal Aerodrome Forecast
Issued by NWS Sioux Falls, SD

Home | Current Version | Previous Version | Graphics & Text | Print | Product List | Glossary On
Versions: 1 2 3 4 5 6 7 8 9 10 11 12 13 14 15 16 17 18
000
FTUS43 KFSD 202320
TAFFSD
TAF
KFSD 202320Z 2100/2124 04010KT P6SM SCT035 SCT080
     FM210400 05007KT P6SM VCTS BKN040CB
     FM210900 06006KT P6SM BKN025
     FM211600 10006KT P6SM VCTS BKN025CB
     FM212100 08005KT P6SM -SHRA VCTS OVC060CB=

USA.gov is the U.S. government's official web portal to all federal, state and local government web resources and services.